createdAt,value
2018-05-29T00:01:33.241Z,22.73
2018-05-29T00:06:29.137Z,21.50
2018-05-29T00:11:25.034Z,22.27
2018-05-29T00:16:20.937Z,23.47
2018-05-29T00:21:16.819Z,23.60
2018-05-29T00:26:12.724Z,24.33
2018-05-29T00:31:08.647Z,25.20
2018-05-29T00:36:04.502Z,26.97
2018-05-29T00:41:00.385Z,24.63
2018-05-29T00:45:56.238Z,26.50
2018-05-29T00:50:52.119Z,26.70
2018-05-29T00:55:48.035Z,26.00
2018-05-29T01:00:43.986Z,27.40
2018-05-29T01:05:39.869Z,26.83
2018-05-29T01:10:35.763Z,27.77
2018-05-29T01:15:31.635Z,28.87
2018-05-29T01:20:27.500Z,27.53
2018-05-29T01:25:23.381Z,28.43
2018-05-29T01:30:19.233Z,29.40
2018-05-29T01:35:15.105Z,29.83
2018-05-29T01:40:11.006Z,31.27
2018-05-29T01:45:06.869Z,31.30
2018-05-29T01:50:02.773Z,32.07
2018-05-29T01:54:58.671Z,30.57
2018-05-29T01:59:54.553Z,30.87
2018-05-29T02:04:50.427Z,30.20
2018-05-29T02:09:46.308Z,30.40
2018-05-29T02:14:42.224Z,29.17
2018-05-29T02:19:38.085Z,30.87
2018-05-29T02:24:34.247Z,31.73
2018-05-29T02:29:30.258Z,33.07
2018-05-29T02:34:26.094Z,33.63
2018-05-29T02:39:21.971Z,32.00
2018-05-29T02:44:18.109Z,31.43
2018-05-29T02:49:13.985Z,31.30
2018-05-29T02:54:10.133Z,32.40
2018-05-29T02:59:06.006Z,31.70
2018-05-29T03:04:01.882Z,32.90
2018-05-29T03:08:57.759Z,31.73
2018-05-29T03:13:53.676Z,29.77
2018-05-29T03:18:49.567Z,29.07
2018-05-29T03:23:45.435Z,29.17
2018-05-29T03:28:41.301Z,32.40
2018-05-29T03:33:37.168Z,33.03
2018-05-29T03:38:33.067Z,32.43
2018-05-29T03:43:29.112Z,33.50
2018-05-29T03:48:25.000Z,33.37
2018-05-29T03:53:20.878Z,32.00
2018-05-29T03:58:16.749Z,32.57
2018-05-29T04:03:12.665Z,34.60
2018-05-29T04:08:08.515Z,34.50
2018-05-29T04:13:04.383Z,34.67
2018-05-29T04:18:00.239Z,33.73
2018-05-29T04:22:56.118Z,33.83
2018-05-29T04:27:52.153Z,32.37
2018-05-29T04:32:47.985Z,31.70
2018-05-29T04:37:43.856Z,30.40
2018-05-29T04:42:39.736Z,30.37
2018-05-29T04:47:35.609Z,30.07
2018-05-29T04:52:31.517Z,31.33
2018-05-29T04:57:27.421Z,30.40
2018-05-29T05:02:23.297Z,29.93
2018-05-29T05:07:19.214Z,30.90
2018-05-29T05:12:15.089Z,29.63
2018-05-29T05:17:10.989Z,31.43
2018-05-29T05:22:06.881Z,28.80
2018-05-29T05:27:02.791Z,28.97
2018-05-29T05:31:58.680Z,31.17
2018-05-29T05:36:54.551Z,28.02
2018-05-29T05:41:50.423Z,29.55
2018-05-29T05:46:46.319Z,27.37
2018-05-29T05:51:42.214Z,26.35
2018-05-29T05:56:38.056Z,24.55
2018-05-29T06:01:33.941Z,26.30
2018-05-29T06:06:29.890Z,25.08
2018-05-29T06:11:25.812Z,24.70
2018-05-29T06:16:21.776Z,24.85
2018-05-29T06:21:17.643Z,24.55
2018-05-29T06:26:13.490Z,24.08
2018-05-29T06:31:09.348Z,21.27
2018-05-29T06:36:05.259Z,23.23
2018-05-29T06:41:01.161Z,22.10
2018-05-29T06:45:57.037Z,21.33
2018-05-29T06:50:52.968Z,21.40
2018-05-29T06:55:48.846Z,20.98
2018-05-29T07:00:44.772Z,20.27
2018-05-29T07:05:40.636Z,19.45
2018-05-29T07:10:36.588Z,20.00
2018-05-29T07:15:32.471Z,19.25
2018-05-29T07:20:28.370Z,19.33
2018-05-29T07:25:24.264Z,19.23
2018-05-29T07:30:20.191Z,19.83
2018-05-29T07:35:16.130Z,18.33
2018-05-29T07:40:12.051Z,17.40
2018-05-29T07:45:07.918Z,16.35
2018-05-29T07:50:03.778Z,18.10
2018-05-29T07:54:59.694Z,17.92
2018-05-29T07:59:55.564Z,18.20
2018-05-29T08:04:51.448Z,17.58
2018-05-29T08:09:47.329Z,15.85
2018-05-29T08:14:43.255Z,16.77
2018-05-29T08:19:39.160Z,16.02
2018-05-29T08:24:35.048Z,16.30
2018-05-29T08:29:30.925Z,16.60
2018-05-29T08:34:26.791Z,13.80
2018-05-29T08:39:22.677Z,15.15
2018-05-29T08:44:18.541Z,14.45
2018-05-29T08:49:14.548Z,14.80
2018-05-29T08:54:10.428Z,13.20
2018-05-29T08:59:06.497Z,12.43
2018-05-29T09:04:02.456Z,10.48
2018-05-29T09:08:58.294Z,11.12
2018-05-29T09:13:54.133Z,11.45
2018-05-29T09:18:50.027Z,11.63
2018-05-29T09:23:45.915Z,9.75
2018-05-29T09:28:41.895Z,9.90
2018-05-29T09:33:37.766Z,9.88
2018-05-29T09:38:33.670Z,10.40
2018-05-29T09:43:29.554Z,9.73
2018-05-29T09:48:25.441Z,9.75
2018-05-29T09:53:21.343Z,9.70
2018-05-29T09:58:17.264Z,13.85
2018-05-29T10:03:13.166Z,9.82
2018-05-29T10:08:09.085Z,8.95
2018-05-29T10:13:04.954Z,8.20
2018-05-29T10:18:00.853Z,8.98
2018-05-29T10:22:56.737Z,8.13
2018-05-29T10:27:52.649Z,7.65
2018-05-29T10:32:48.542Z,7.15
2018-05-29T10:37:44.399Z,7.82
2018-05-29T10:42:40.313Z,7.28
2018-05-29T10:47:36.207Z,7.40
2018-05-29T10:52:32.110Z,7.87
2018-05-29T10:57:27.995Z,7.97
2018-05-29T11:02:23.896Z,7.65
2018-05-29T11:07:19.973Z,8.40
2018-05-29T11:12:15.973Z,8.88
2018-05-29T11:17:11.873Z,8.27
2018-05-29T11:22:07.727Z,8.70
2018-05-29T11:27:03.802Z,9.30
2018-05-29T11:31:59.684Z,8.95
2018-05-29T11:36:55.738Z,9.48
2018-05-29T11:41:51.615Z,9.13
2018-05-29T11:46:47.489Z,9.27
2018-05-29T11:51:43.364Z,9.70
2018-05-29T11:56:39.229Z,12.27
2018-05-29T12:01:35.143Z,9.13
2018-05-29T12:06:31.003Z,8.73
2018-05-29T12:11:26.919Z,8.70
2018-05-29T12:16:22.921Z,8.57
2018-05-29T12:21:18.796Z,9.90
2018-05-29T12:26:14.873Z,8.80
2018-05-29T12:31:10.741Z,8.98
2018-05-29T12:36:06.616Z,8.82
2018-05-29T12:41:02.481Z,8.02
2018-05-29T12:45:58.377Z,6.95
2018-05-29T12:50:54.233Z,5.70
2018-05-29T12:55:50.103Z,5.80
2018-05-29T13:00:46.025Z,5.93
2018-05-29T13:05:41.882Z,5.22
2018-05-29T13:10:37.808Z,6.97
2018-05-29T13:15:33.660Z,5.97
2018-05-29T13:20:29.561Z,5.80
2018-05-29T13:25:25.445Z,5.30
2018-05-29T13:30:21.313Z,5.03
2018-05-29T13:35:17.258Z,5.03
2018-05-29T13:40:13.143Z,4.20
2018-05-29T13:45:09.001Z,4.57
2018-05-29T13:50:04.913Z,4.22
2018-05-29T13:55:00.759Z,4.25
2018-05-29T13:59:56.731Z,4.93
2018-05-29T14:04:52.603Z,10.15
2018-05-29T14:09:48.492Z,9.13
2018-05-29T14:14:44.403Z,6.00
2018-05-29T14:19:40.326Z,6.72
2018-05-29T14:24:36.203Z,5.40
2018-05-29T14:29:32.065Z,5.22
2018-05-29T14:34:27.953Z,6.00
2018-05-29T14:39:23.832Z,6.18
2018-05-29T14:44:19.795Z,6.35
2018-05-29T14:49:15.662Z,6.60
2018-05-29T14:54:11.546Z,5.78
2018-05-29T14:59:07.414Z,6.78
2018-05-29T15:04:03.333Z,7.28
2018-05-29T15:08:59.195Z,8.13
2018-05-29T15:13:55.095Z,8.88
2018-05-29T15:18:50.996Z,9.88
2018-05-29T15:23:46.857Z,12.48
2018-05-29T15:28:42.765Z,12.45
2018-05-29T15:33:38.683Z,13.20
2018-05-29T15:38:34.513Z,13.80
2018-05-29T15:43:30.359Z,14.38
2018-05-29T15:48:26.415Z,14.25
2018-05-29T15:53:22.343Z,15.02
2018-05-29T15:58:18.226Z,13.18
2018-05-29T16:03:14.153Z,14.77
2018-05-29T16:08:10.066Z,14.77
2018-05-29T16:13:05.975Z,14.48
2018-05-29T16:18:01.885Z,13.13
2018-05-29T16:22:57.792Z,13.80
2018-05-29T16:27:53.681Z,14.15
2018-05-29T16:32:49.569Z,13.35
2018-05-29T16:37:45.405Z,13.75
2018-05-29T16:42:41.305Z,14.07
2018-05-29T16:47:37.187Z,56.88
2018-05-29T16:52:33.289Z,12.98
2018-05-29T16:57:29.187Z,12.93
2018-05-29T17:02:25.084Z,12.20
2018-05-29T17:07:21.023Z,12.50
2018-05-29T17:12:16.902Z,11.80
2018-05-29T17:17:12.789Z,12.18
2018-05-29T17:22:08.685Z,11.55
2018-05-29T17:27:04.546Z,13.23
2018-05-29T17:32:00.517Z,11.93
2018-05-29T17:36:56.378Z,14.18
2018-05-29T17:41:52.281Z,15.50
2018-05-29T17:46:48.168Z,13.88
2018-05-29T17:51:44.051Z,13.73
2018-05-29T17:56:39.944Z,14.75
2018-05-29T18:01:35.828Z,14.93
2018-05-29T18:06:31.749Z,15.40
2018-05-29T18:11:27.647Z,16.17
2018-05-29T18:16:23.508Z,16.10
2018-05-29T18:21:19.401Z,19.02
2018-05-29T18:26:16.215Z,17.62
2018-05-29T18:31:12.175Z,16.42
2018-05-29T18:36:08.039Z,16.45
2018-05-29T18:41:03.940Z,15.88
2018-05-29T18:45:59.853Z,16.48
2018-05-29T18:50:55.717Z,16.15
2018-05-29T18:55:51.625Z,16.73
2018-05-29T19:00:47.512Z,14.43
2018-05-29T19:05:43.382Z,14.52
2018-05-29T19:10:39.288Z,13.98
2018-05-29T19:15:35.183Z,14.50
2018-05-29T19:20:31.053Z,13.77
2018-05-29T19:25:26.921Z,12.95
2018-05-29T19:30:22.783Z,12.93
2018-05-29T19:35:18.715Z,12.20
2018-05-29T19:40:14.612Z,12.63
2018-05-29T19:45:10.499Z,12.10
2018-05-29T19:50:06.411Z,12.35
2018-05-29T19:55:02.331Z,12.70
2018-05-29T19:59:58.203Z,12.65
2018-05-29T20:04:54.093Z,11.98
2018-05-29T20:09:49.971Z,12.65
2018-05-29T20:14:45.891Z,14.57
2018-05-29T20:19:41.740Z,15.95
2018-05-29T20:24:37.630Z,14.82
2018-05-29T20:29:33.486Z,14.65
2018-05-29T20:34:29.380Z,15.75
2018-05-29T20:39:25.249Z,15.27
2018-05-29T20:44:21.146Z,14.75
2018-05-29T20:49:17.043Z,14.80
2018-05-29T20:54:12.909Z,14.68
2018-05-29T20:59:08.772Z,15.45
2018-05-29T21:04:04.657Z,15.80
2018-05-29T21:09:00.534Z,21.45
2018-05-29T21:13:56.438Z,22.87
2018-05-29T21:18:52.349Z,17.73
2018-05-29T21:23:48.240Z,18.27
2018-05-29T21:28:44.257Z,16.62
2018-05-29T21:33:40.116Z,19.10
2018-05-29T21:38:36.000Z,19.62
2018-05-29T21:43:31.868Z,19.52
2018-05-29T21:48:27.741Z,19.75
2018-05-29T21:53:23.625Z,20.12
2018-05-29T21:58:19.522Z,20.15
2018-05-29T22:03:15.386Z,21.05
2018-05-29T22:08:11.248Z,23.17
2018-05-29T22:13:07.112Z,22.27
2018-05-29T22:18:03.051Z,22.80
2018-05-29T22:22:58.909Z,23.73
2018-05-29T22:27:54.797Z,23.23
2018-05-29T22:32:50.659Z,22.62
2018-05-29T22:37:46.537Z,21.45
2018-05-29T22:42:42.437Z,20.40
2018-05-29T22:47:38.360Z,19.73
2018-05-29T22:52:34.244Z,19.75
2018-05-29T22:57:30.165Z,22.95
2018-05-29T23:02:26.003Z,21.15
2018-05-29T23:07:21.908Z,21.60
2018-05-29T23:12:17.785Z,21.48
2018-05-29T23:17:13.624Z,21.12
2018-05-29T23:22:09.483Z,21.48
2018-05-29T23:27:05.339Z,23.03
2018-05-29T23:32:01.179Z,24.03
2018-05-29T23:36:57.068Z,25.77
2018-05-29T23:41:52.951Z,24.97
2018-05-29T23:46:48.841Z,25.83
2018-05-29T23:51:44.741Z,25.25
2018-05-29T23:56:40.632Z,24.57
